Weather at Nea Anchialos National Airport

Public forecast

Using degrees Celsius for public forecast. Weather courtesy of forecast.io.

Current aviation weather report (METAR) for Nea Anchialos National Airport

2024/05/20 17:20 (retrieved 34 minutes ago)

LGBL 201720Z 11007KT 9999 FEW035 21/15 Q1013

Closest aviation forecast (TAF) to Nea Anchialos National Airport

Closest forecast is Elefsis Air Base, 78.0 nm (144.5 km) SSE.

2024/05/20 12:12 (retrieved 6 hours ago)

TAF LGEL 201100Z 2012/2112 18010KT 9999 FEW025 BECMG 2018/2020 VRB05KT TEMPO 2108/2112 19008KT TEMPO 2103/2108 SCT025 BKN070